Pride — ZDFD7 — position and weather

sailwx.info

Track history (hours):
 
Tides and Currents Weather Stations Pressure Air Temp Water Temp Dewpoint Dewpoint Depression Visibility Wind Speed Wind Dir Waves Ship Positions

Pride

Last reported at 2015-Mar-30 20:28 UTC. Time now 2015-Mar-30 23:00 UTC.
Position N 59°17' E 004°42'.

Length 88 m; draft 3.7 m.

Type: Ship. MMSI: 236166000.

Date/timePositionNaut miles runAvg speedWind from/ knotsBaromVisibWave heightAir tempDewpointWater temp
2015-Mar-30 20:28N 59°17' E 004°42'8 8.7
2015-Mar-30 19:33N 59°10' E 004°50'8 8.4
2015-Mar-30 18:33N 59°04' E 005°01'9 9.2
2015-Mar-30 17:33N 58°57' E 005°13'9 8.9
2015-Mar-30 16:33N 58°51' E 005°25'6 6.3
2015-Mar-30 15:33N 58°55' E 005°32'2 1.5
2015-Mar-30 14:33N 58°56' E 005°35'0 0.0
2015-Mar-30 13:33N 58°56' E 005°35'0 0.0
2015-Mar-30 12:28N 58°56' E 005°35'0 0.0
2015-Mar-30 11:31N 58°56' E 005°35'0 0.0
2015-Mar-30 10:30N 58°56' E 005°35'0 0.0
2015-Mar-30 09:33N 58°56' E 005°35'0 0.0
2015-Mar-30 08:31N 58°56' E 005°35'1 1.3
2015-Mar-30 07:33N 58°55' E 005°33'9 8.6
2015-Mar-30 06:31N 58°47' E 005°25'3 2.4
2015-Mar-30 05:07N 58°44' E 005°25'15 8.9
2015-Mar-30 03:23N 58°29' E 005°30'7 8.9
2015-Mar-30 02:33N 58°22' E 005°33'250 8.9
2015-Mar-28 22:33N 54°12' E 005°22'9 9.4
2015-Mar-28 21:33N 54°03' E 005°22'10 9.7
2015-Mar-28 20:33N 53°58' E 005°08'1010.2
2015-Mar-28 19:33N 53°49' E 005°00'20 9.9
2015-Mar-28 17:31N 53°30' E 004°47'10710.4
2015-Mar-28 07:13N 51°56' E 003°23'19 9.4
2015-Mar-28 05:13N 51°37' E 003°22'7 9.3
2015-Mar-28 04:31N 51°31' E 003°26'8 8.2
2015-Mar-28 03:33N 51°26' E 003°36'4 3.7
2015-Mar-28 02:30N 51°28' E 003°42'0 0.0
2015-Mar-28 01:31N 51°28' E 003°42'0 0.0
2015-Mar-28 00:32N 51°28' E 003°42'0 0.0
2015-Mar-27 23:29N 51°28' E 003°42'0 0.0
2015-Mar-27 22:33N 51°28' E 003°42'0 0.0
2015-Mar-27 21:24N 51°28' E 003°42'0 0.0
2015-Mar-27 20:30N 51°28' E 003°42'0 0.0
2015-Mar-27 19:30N 51°28' E 003°42'0 0.0
2015-Mar-27 18:25N 51°28' E 003°42'0 0.0
2015-Mar-27 17:27N 51°28' E 003°42'0 0.0
2015-Mar-27 16:27N 51°28' E 003°42'0 0.0
2015-Mar-27 15:32N 51°28' E 003°42'0 0.0
2015-Mar-27 14:33N 51°28' E 003°42'0 0.0
2015-Mar-27 13:31N 51°28' E 003°42'0 0.0
2015-Mar-27 12:33N 51°28' E 003°42'0 0.0
2015-Mar-27 11:33N 51°28' E 003°42'0 0.0
2015-Mar-27 10:33N 51°28' E 003°42'0 0.0
2015-Mar-27 09:28N 51°28' E 003°42'0 0.0
2015-Mar-27 08:33N 51°28' E 003°42'0 0.0
2015-Mar-27 07:29N 51°28' E 003°42'0 0.0
2015-Mar-27 06:33N 51°28' E 003°42'0 0.0
2015-Mar-27 05:32N 51°28' E 003°42'0 0.0
2015-Mar-27 04:33N 51°28' E 003°42'0 0.0
2015-Mar-27 03:32N 51°28' E 003°42'0 0.0
2015-Mar-27 02:33N 51°28' E 003°42'0 0.0
2015-Mar-27 01:33N 51°28' E 003°42'0 0.0
2015-Mar-27 00:33N 51°28' E 003°42'0 0.0
2015-Mar-26 23:29N 51°28' E 003°42'0 0.0
2015-Mar-26 22:31N 51°28' E 003°42'0 0.0
2015-Mar-26 21:32N 51°28' E 003°42'0 0.0
2015-Mar-26 20:32N 51°28' E 003°42'0 0.0
2015-Mar-26 19:27N 51°28' E 003°42'0 0.0
2015-Mar-26 18:32N 51°28' E 003°42'0 0.0
2015-Mar-26 17:28N 51°28' E 003°42'0 0.0
2015-Mar-26 16:31N 51°28' E 003°42'0 0.0
2015-Mar-26 15:28N 51°28' E 003°42'0 0.0
2015-Mar-26 14:30N 51°28' E 003°42'0 0.0
2015-Mar-26 13:31N 51°28' E 003°42'0 0.0
2015-Mar-26 12:32N 51°28' E 003°42'0 0.0
2015-Mar-26 11:28N 51°28' E 003°42'0 0.0
2015-Mar-26 10:32N 51°28' E 003°42'0 0.0
2015-Mar-26 09:32N 51°28' E 003°42'0 0.0
2015-Mar-26 08:33N 51°28' E 003°42'0 0.0
2015-Mar-26 07:31N 51°28' E 003°42'0 0.0
2015-Mar-26 06:32N 51°28' E 003°42'0 0.0
2015-Mar-26 05:29N 51°28' E 003°42'0 0.0
2015-Mar-26 04:33N 51°28' E 003°42'0 0.0
2015-Mar-26 03:27N 51°28' E 003°42'0 0.0
2015-Mar-26 02:30N 51°28' E 003°42'4 4.5
2015-Mar-26 01:33N 51°24' E 003°43'6 5.5
2015-Mar-26 00:33N 51°20' E 003°49'2 1.5
2015-Mar-25 23:33N 51°18' E 003°50'0 0.4
2015-Mar-25 22:32N 51°18' E 003°50'0 0.0
2015-Mar-25 21:26N 51°18' E 003°50'0 0.0
2015-Mar-25 19:28N 51°18' E 003°50'0 0.0
2015-Mar-25 18:22N 51°18' E 003°50'0 0.0
2015-Mar-25 17:20N 51°18' E 003°50'0 0.0
2015-Mar-25 16:27N 51°18' E 003°50'0 0.0
2015-Mar-25 15:29N 51°18' E 003°50'0 0.0
2015-Mar-25 14:33N 51°18' E 003°50'0 0.0
2015-Mar-25 13:26N 51°18' E 003°50'0 0.0
2015-Mar-25 12:32N 51°18' E 003°50'0 0.0
2015-Mar-25 11:16N 51°18' E 003°50'0 0.0
2015-Mar-25 10:18N 51°18' E 003°50'0 0.0
2015-Mar-25 08:30N 51°18' E 003°50'0 0.0
2015-Mar-25 07:28N 51°18' E 003°50'0 0.0
2015-Mar-25 06:33N 51°18' E 003°50'0 0.0
2015-Mar-25 05:26N 51°18' E 003°50'0 0.0
2015-Mar-25 04:33N 51°18' E 003°50'0 0.0
2015-Mar-25 03:11N 51°18' E 003°50'0 0.0
2015-Mar-25 02:28N 51°18' E 003°50'0 0.0
2015-Mar-25 01:28N 51°18' E 003°50'0 0.0
2015-Mar-25 00:32N 51°18' E 003°50'0 0.0
2015-Mar-24 23:17N 51°18' E 003°50'0 0.0
2015-Mar-24 22:33N 51°18' E 003°50'0 0.0
2015-Mar-24 21:30N 51°18' E 003°50'0 0.0
2015-Mar-24 20:22N 51°18' E 003°50'0 0.0
2015-Mar-24 19:26N 51°18' E 003°50'0 0.0
2015-Mar-24 18:28N 51°18' E 003°50'0 0.0
2015-Mar-24 17:23N 51°18' E 003°50'0 0.0
2015-Mar-24 16:11N 51°18' E 003°50'0 0.0
2015-Mar-24 14:20N 51°18' E 003°50'0 0.0
2015-Mar-24 13:31N 51°18' E 003°50'0 0.0
2015-Mar-24 12:30N 51°18' E 003°50'0 0.0
2015-Mar-24 11:26N 51°18' E 003°50'0 0.0
2015-Mar-24 10:22N 51°18' E 003°50'0 0.0
2015-Mar-24 09:24N 51°18' E 003°50'0 0.0
2015-Mar-24 08:11N 51°18' E 003°50'0 0.0
2015-Mar-24 04:29N 51°18' E 003°50'0 0.0
2015-Mar-24 03:31N 51°18' E 003°50'0 0.0
2015-Mar-24 02:23N 51°18' E 003°50'0 0.0
2015-Mar-24 01:28N 51°18' E 003°50'0 0.0
2015-Mar-24 00:25N 51°18' E 003°50'2 2.1
2015-Mar-23 23:33N 51°20' E 003°49'1 0.7
2015-Mar-23 22:34N 51°20' E 003°49'4 4.3
2015-Mar-23 21:34N 51°23' E 003°43'6 5.5
2015-Mar-23 20:33N 51°26' E 003°35'5 5.1
2015-Mar-23 19:33N 51°29' E 003°29'4 4.1
2015-Mar-23 18:33N 51°32' E 003°25'6 5.9
2015-Mar-23 17:33N 51°38' E 003°21'9 0.9
2015-Mar-23 07:32N 51°46' E 003°19'6 0.4
2015-Mar-22 14:15N 51°52' E 003°19'116 9.1
2015-Mar-22 01:30N 53°33' E 004°54'1010.4
2015-Mar-22 00:33N 53°36' E 005°09'1010.0
2015-Mar-21 23:33N 53°40' E 005°25'9 9.2
2015-Mar-21 22:33N 53°42' E 005°40'8 8.4
2015-Mar-21 21:33N 53°45' E 005°54'53 8.7
2015-Mar-21 15:31N 53°59' E 007°20'1010.1
2015-Mar-21 14:34N 54°01' E 007°36'1010.1
2015-Mar-21 13:33N 54°01' E 007°53'1110.1
2015-Mar-21 12:26N 54°01' E 008°12'9 9.3
2015-Mar-21 11:30N 53°59' E 008°27'7 7.4
2015-Mar-21 10:32N 53°57' E 008°39'6 6.7
2015-Mar-21 09:33N 53°52' E 008°45'10 9.6
2015-Mar-21 08:33N 53°52' E 009°01'5 5.1
2015-Mar-21 07:33N 53°54' E 009°09'5 4.7
2015-Mar-21 06:33N 53°57' E 009°14'6 5.9
2015-Mar-21 05:33N 54°03' E 009°18'21 7.0
2015-Mar-21 02:31N 54°18' E 009°43'7 7.2
2015-Mar-21 01:33N 54°21' E 009°53'7 6.8
2015-Mar-21 00:33N 54°22' E 010°05'5 1.9
2015-Mar-20 22:03N 54°24' E 010°12'5 9.9
2015-Mar-20 21:33N 54°29' E 010°16'  
Track history (hours):
 
Tides and Currents Weather Stations Pressure Air Temp Water Temp Dewpoint Dewpoint Depression Visibility Wind Speed Wind Dir Waves Ship Positions

Pride

Last reported at 2015-Mar-30 20:28 UTC. Time now 2015-Mar-30 23:00 UTC.
Position N 59°17' E 004°42'.

Length 88 m; draft 3.7 m.

Type: Ship. MMSI: 236166000.

Date/timePositionNaut miles runAvg speedWind from/ knotsBaromVisibWave heightAir tempDewpointWater temp
2015-Mar-30 20:28N 59°17' E 004°42'8 8.7
2015-Mar-30 19:33N 59°10' E 004°50'8 8.4
2015-Mar-30 18:33N 59°04' E 005°01'9 9.2
2015-Mar-30 17:33N 58°57' E 005°13'9 8.9
2015-Mar-30 16:33N 58°51' E 005°25'6 6.3
2015-Mar-30 15:33N 58°55' E 005°32'2 1.5
2015-Mar-30 14:33N 58°56' E 005°35'0 0.0
2015-Mar-30 13:33N 58°56' E 005°35'0 0.0
2015-Mar-30 12:28N 58°56' E 005°35'0 0.0
2015-Mar-30 11:31N 58°56' E 005°35'0 0.0
2015-Mar-30 10:30N 58°56' E 005°35'0 0.0
2015-Mar-30 09:33N 58°56' E 005°35'0 0.0
2015-Mar-30 08:31N 58°56' E 005°35'1 1.3
2015-Mar-30 07:33N 58°55' E 005°33'9 8.6
2015-Mar-30 06:31N 58°47' E 005°25'3 2.4
2015-Mar-30 05:07N 58°44' E 005°25'15 8.9
2015-Mar-30 03:23N 58°29' E 005°30'7 8.9
2015-Mar-30 02:33N 58°22' E 005°33'250 8.9
2015-Mar-28 22:33N 54°12' E 005°22'9 9.4
2015-Mar-28 21:33N 54°03' E 005°22'10 9.7
2015-Mar-28 20:33N 53°58' E 005°08'1010.2
2015-Mar-28 19:33N 53°49' E 005°00'20 9.9
2015-Mar-28 17:31N 53°30' E 004°47'10710.4
2015-Mar-28 07:13N 51°56' E 003°23'19 9.4
2015-Mar-28 05:13N 51°37' E 003°22'7 9.3
2015-Mar-28 04:31N 51°31' E 003°26'8 8.2
2015-Mar-28 03:33N 51°26' E 003°36'4 3.7
2015-Mar-28 02:30N 51°28' E 003°42'0 0.0
2015-Mar-28 01:31N 51°28' E 003°42'0 0.0
2015-Mar-28 00:32N 51°28' E 003°42'0 0.0
2015-Mar-27 23:29N 51°28' E 003°42'0 0.0
2015-Mar-27 22:33N 51°28' E 003°42'0 0.0
2015-Mar-27 21:24N 51°28' E 003°42'0 0.0
2015-Mar-27 20:30N 51°28' E 003°42'0 0.0
2015-Mar-27 19:30N 51°28' E 003°42'0 0.0
2015-Mar-27 18:25N 51°28' E 003°42'0 0.0
2015-Mar-27 17:27N 51°28' E 003°42'0 0.0
2015-Mar-27 16:27N 51°28' E 003°42'0 0.0
2015-Mar-27 15:32N 51°28' E 003°42'0 0.0
2015-Mar-27 14:33N 51°28' E 003°42'0 0.0
2015-Mar-27 13:31N 51°28' E 003°42'0 0.0
2015-Mar-27 12:33N 51°28' E 003°42'0 0.0
2015-Mar-27 11:33N 51°28' E 003°42'0 0.0
2015-Mar-27 10:33N 51°28' E 003°42'0 0.0
2015-Mar-27 09:28N 51°28' E 003°42'0 0.0
2015-Mar-27 08:33N 51°28' E 003°42'0 0.0
2015-Mar-27 07:29N 51°28' E 003°42'0 0.0
2015-Mar-27 06:33N 51°28' E 003°42'0 0.0
2015-Mar-27 05:32N 51°28' E 003°42'0 0.0
2015-Mar-27 04:33N 51°28' E 003°42'0 0.0
2015-Mar-27 03:32N 51°28' E 003°42'0 0.0
2015-Mar-27 02:33N 51°28' E 003°42'0 0.0
2015-Mar-27 01:33N 51°28' E 003°42'0 0.0
2015-Mar-27 00:33N 51°28' E 003°42'0 0.0
2015-Mar-26 23:29N 51°28' E 003°42'0 0.0
2015-Mar-26 22:31N 51°28' E 003°42'0 0.0
2015-Mar-26 21:32N 51°28' E 003°42'0 0.0
2015-Mar-26 20:32N 51°28' E 003°42'0 0.0
2015-Mar-26 19:27N 51°28' E 003°42'0 0.0
2015-Mar-26 18:32N 51°28' E 003°42'0 0.0
2015-Mar-26 17:28N 51°28' E 003°42'0 0.0
2015-Mar-26 16:31N 51°28' E 003°42'0 0.0
2015-Mar-26 15:28N 51°28' E 003°42'0 0.0
2015-Mar-26 14:30N 51°28' E 003°42'0 0.0
2015-Mar-26 13:31N 51°28' E 003°42'0 0.0
2015-Mar-26 12:32N 51°28' E 003°42'0 0.0
2015-Mar-26 11:28N 51°28' E 003°42'0 0.0
2015-Mar-26 10:32N 51°28' E 003°42'0 0.0
2015-Mar-26 09:32N 51°28' E 003°42'0 0.0
2015-Mar-26 08:33N 51°28' E 003°42'0 0.0
2015-Mar-26 07:31N 51°28' E 003°42'0 0.0
2015-Mar-26 06:32N 51°28' E 003°42'0 0.0
2015-Mar-26 05:29N 51°28' E 003°42'0 0.0
2015-Mar-26 04:33N 51°28' E 003°42'0 0.0
2015-Mar-26 03:27N 51°28' E 003°42'0 0.0
2015-Mar-26 02:30N 51°28' E 003°42'4 4.5
2015-Mar-26 01:33N 51°24' E 003°43'6 5.5
2015-Mar-26 00:33N 51°20' E 003°49'2 1.5
2015-Mar-25 23:33N 51°18' E 003°50'0 0.4
2015-Mar-25 22:32N 51°18' E 003°50'0 0.0
2015-Mar-25 21:26N 51°18' E 003°50'0 0.0
2015-Mar-25 19:28N 51°18' E 003°50'0 0.0
2015-Mar-25 18:22N 51°18' E 003°50'0 0.0
2015-Mar-25 17:20N 51°18' E 003°50'0 0.0
2015-Mar-25 16:27N 51°18' E 003°50'0 0.0
2015-Mar-25 15:29N 51°18' E 003°50'0 0.0
2015-Mar-25 14:33N 51°18' E 003°50'0 0.0
2015-Mar-25 13:26N 51°18' E 003°50'0 0.0
2015-Mar-25 12:32N 51°18' E 003°50'0 0.0
2015-Mar-25 11:16N 51°18' E 003°50'0 0.0
2015-Mar-25 10:18N 51°18' E 003°50'0 0.0
2015-Mar-25 08:30N 51°18' E 003°50'0 0.0
2015-Mar-25 07:28N 51°18' E 003°50'0 0.0
2015-Mar-25 06:33N 51°18' E 003°50'0 0.0
2015-Mar-25 05:26N 51°18' E 003°50'0 0.0
2015-Mar-25 04:33N 51°18' E 003°50'0 0.0
2015-Mar-25 03:11N 51°18' E 003°50'0 0.0
2015-Mar-25 02:28N 51°18' E 003°50'0 0.0
2015-Mar-25 01:28N 51°18' E 003°50'0 0.0
2015-Mar-25 00:32N 51°18' E 003°50'0 0.0
2015-Mar-24 23:17N 51°18' E 003°50'0 0.0
2015-Mar-24 22:33N 51°18' E 003°50'0 0.0
2015-Mar-24 21:30N 51°18' E 003°50'0 0.0
2015-Mar-24 20:22N 51°18' E 003°50'0 0.0
2015-Mar-24 19:26N 51°18' E 003°50'0 0.0
2015-Mar-24 18:28N 51°18' E 003°50'0 0.0
2015-Mar-24 17:23N 51°18' E 003°50'0 0.0
2015-Mar-24 16:11N 51°18' E 003°50'0 0.0
2015-Mar-24 14:20N 51°18' E 003°50'0 0.0
2015-Mar-24 13:31N 51°18' E 003°50'0 0.0
2015-Mar-24 12:30N 51°18' E 003°50'0 0.0
2015-Mar-24 11:26N 51°18' E 003°50'0 0.0
2015-Mar-24 10:22N 51°18' E 003°50'0 0.0
2015-Mar-24 09:24N 51°18' E 003°50'0 0.0
2015-Mar-24 08:11N 51°18' E 003°50'0 0.0
2015-Mar-24 04:29N 51°18' E 003°50'0 0.0
2015-Mar-24 03:31N 51°18' E 003°50'0 0.0
2015-Mar-24 02:23N 51°18' E 003°50'0 0.0
2015-Mar-24 01:28N 51°18' E 003°50'0 0.0
2015-Mar-24 00:25N 51°18' E 003°50'2 2.1
2015-Mar-23 23:33N 51°20' E 003°49'1 0.7
2015-Mar-23 22:34N 51°20' E 003°49'4 4.3
2015-Mar-23 21:34N 51°23' E 003°43'6 5.5
2015-Mar-23 20:33N 51°26' E 003°35'5 5.1
2015-Mar-23 19:33N 51°29' E 003°29'4 4.1
2015-Mar-23 18:33N 51°32' E 003°25'6 5.9
2015-Mar-23 17:33N 51°38' E 003°21'9 0.9
2015-Mar-23 07:32N 51°46' E 003°19'6 0.4
2015-Mar-22 14:15N 51°52' E 003°19'116 9.1
2015-Mar-22 01:30N 53°33' E 004°54'1010.4
2015-Mar-22 00:33N 53°36' E 005°09'1010.0
2015-Mar-21 23:33N 53°40' E 005°25'9 9.2
2015-Mar-21 22:33N 53°42' E 005°40'8 8.4
2015-Mar-21 21:33N 53°45' E 005°54'53 8.7
2015-Mar-21 15:31N 53°59' E 007°20'1010.1
2015-Mar-21 14:34N 54°01' E 007°36'1010.1
2015-Mar-21 13:33N 54°01' E 007°53'1110.1
2015-Mar-21 12:26N 54°01' E 008°12'9 9.3
2015-Mar-21 11:30N 53°59' E 008°27'7 7.4
2015-Mar-21 10:32N 53°57' E 008°39'6 6.7
2015-Mar-21 09:33N 53°52' E 008°45'10 9.6
2015-Mar-21 08:33N 53°52' E 009°01'5 5.1
2015-Mar-21 07:33N 53°54' E 009°09'5 4.7
2015-Mar-21 06:33N 53°57' E 009°14'6 5.9
2015-Mar-21 05:33N 54°03' E 009°18'21 7.0
2015-Mar-21 02:31N 54°18' E 009°43'7 7.2
2015-Mar-21 01:33N 54°21' E 009°53'7 6.8
2015-Mar-21 00:33N 54°22' E 010°05'5 1.9
2015-Mar-20 22:03N 54°24' E 010°12'5 9.9
2015-Mar-20 21:33N 54°29' E 010°16'  

Dump ship's entire track history